Time;durP1;ratioP1;P1;durP2;ratioP2;P2;SDS_P1;SDS_P2;PMS_P1;PMS_P2;Temp;Humidity;BMP_temperature;BMP_pressure;BME280_temperature;BME280_humidity;BME280_pressure;Samples;Min_cycle;Max_cycle;Signal;HPM_P1;HPM_P2
2020/12/29 00:01:50;;;;;;;4.07;1.87;;;0.30;99.90;;;;;;5071268;28;20025;-78
2020/12/29 00:04:20;;;;;;;3.67;2.03;;;0.20;99.90;;;;;;5067707;28;20085;-79
2020/12/29 00:06:47;;;;;;;2.67;1.63;;;0.30;99.90;;;;;;5067235;28;20020;-80
2020/12/29 00:09:14;;;;;;;2.67;1.70;;;0.20;99.90;;;;;;5067774;28;20035;-79
2020/12/29 00:11:40;;;;;;;3.53;1.80;;;0.20;99.90;;;;;;5062419;28;20096;-80
2020/12/29 00:14:06;;;;;;;4.87;2.57;;;0.20;99.90;;;;;;5061622;28;20024;-80
2020/12/29 00:16:32;;;;;;;3.57;1.97;;;0.20;99.90;;;;;;5069295;28;20037;-79
2020/12/29 00:18:57;;;;;;;3.67;2.07;;;0.30;99.90;;;;;;5071572;28;20055;-79
2020/12/29 00:21:23;;;;;;;5.07;2.30;;;0.20;99.90;;;;;;5069007;28;20093;-83
2020/12/29 00:23:49;;;;;;;3.13;1.50;;;0.20;99.90;;;;;;5073737;28;20050;-82
2020/12/29 00:26:16;;;;;;;2.67;1.60;;;0.20;99.90;;;;;;5055911;28;20684;-80
2020/12/29 00:28:42;;;;;;;3.03;1.70;;;0.30;99.90;;;;;;5058453;28;20025;-81
2020/12/29 00:31:09;;;;;;;3.03;1.93;;;0.30;99.90;;;;;;5052425;28;20047;-81
2020/12/29 00:33:35;;;;;;;2.93;1.63;;;0.30;99.90;;;;;;5067817;28;20028;-81
2020/12/29 00:36:01;;;;;;;3.00;1.53;;;0.40;99.90;;;;;;5072009;28;20044;-81
2020/12/29 00:38:28;;;;;;;3.07;1.50;;;0.40;99.90;;;;;;5065467;28;20021;-82
2020/12/29 00:40:53;;;;;;;2.37;1.20;;;0.50;99.90;;;;;;5061606;28;20573;-83
2020/12/29 00:43:19;;;;;;;2.27;1.17;;;0.50;99.90;;;;;;5058634;28;20116;-81
2020/12/29 00:45:46;;;;;;;2.77;1.17;;;0.60;99.90;;;;;;5067562;28;20028;-81
2020/12/29 00:48:11;;;;;;;1.80;0.87;;;0.70;99.90;;;;;;5067433;28;20039;-83
2020/12/29 00:50:37;;;;;;;2.97;1.10;;;0.70;99.90;;;;;;5062148;28;20024;-82
2020/12/29 00:53:03;;;;;;;1.50;1.00;;;0.70;99.90;;;;;;5056486;28;20056;-82
2020/12/29 00:55:29;;;;;;;1.93;1.03;;;0.70;99.90;;;;;;5066966;28;20450;-82
2020/12/29 00:57:55;;;;;;;1.33;0.90;;;0.80;99.90;;;;;;5069075;28;20029;-82
2020/12/29 01:00:21;;;;;;;1.67;0.83;;;0.80;99.90;;;;;;5063926;28;20597;-83
2020/12/29 01:02:46;;;;;;;1.57;0.80;;;0.90;99.90;;;;;;5064171;28;20032;-82
2020/12/29 01:05:12;;;;;;;2.23;1.00;;;1.00;99.90;;;;;;5064670;28;20035;-82
2020/12/29 01:07:38;;;;;;;1.07;0.73;;;0.90;99.90;;;;;;5076286;28;20020;-81
2020/12/29 01:10:04;;;;;;;2.37;0.83;;;1.00;99.90;;;;;;5063071;28;20055;-82
2020/12/29 01:12:30;;;;;;;2.20;1.00;;;1.00;99.90;;;;;;5073632;28;20032;-83
2020/12/29 01:14:57;;;;;;;1.73;0.90;;;1.00;99.90;;;;;;5066078;28;20033;-82
2020/12/29 01:17:23;;;;;;;2.20;1.13;;;0.90;99.90;;;;;;5059028;28;20362;-82
2020/12/29 01:19:48;;;;;;;1.27;0.80;;;0.90;99.90;;;;;;5058678;28;20026;-82
2020/12/29 01:22:15;;;;;;;1.77;0.90;;;0.80;99.90;;;;;;5060106;28;20400;-81
2020/12/29 01:24:41;;;;;;;2.07;1.30;;;0.80;99.90;;;;;;5068554;28;20024;-81
2020/12/29 01:27:07;;;;;;;1.53;0.80;;;0.70;99.90;;;;;;5061263;28;20033;-80
2020/12/29 01:29:33;;;;;;;2.20;1.07;;;0.70;99.90;;;;;;5061995;28;20028;-79
2020/12/29 01:31:59;;;;;;;2.37;1.10;;;0.70;99.90;;;;;;5066975;28;20037;-79
2020/12/29 01:34:25;;;;;;;3.13;1.30;;;0.70;99.90;;;;;;5068559;28;20017;-79
2020/12/29 01:36:51;;;;;;;1.50;0.80;;;0.60;99.90;;;;;;5068884;28;20039;-78
2020/12/29 01:39:17;;;;;;;1.03;0.70;;;0.70;99.90;;;;;;5074478;28;20039;-79
2020/12/29 01:41:43;;;;;;;1.50;0.90;;;0.70;99.90;;;;;;5068918;28;20033;-80
2020/12/29 01:44:16;;;;;;;2.07;1.00;;;0.60;99.90;;;;;;5073227;28;20151;-79
2020/12/29 01:46:43;;;;;;;2.00;0.90;;;0.60;99.90;;;;;;5064671;28;20036;-80
2020/12/29 01:49:09;;;;;;;1.60;0.90;;;0.60;99.90;;;;;;5046519;28;20036;-80
2020/12/29 01:51:35;;;;;;;1.30;0.80;;;0.50;99.90;;;;;;5063454;28;20031;-82
2020/12/29 01:54:01;;;;;;;1.37;0.73;;;0.60;99.90;;;;;;5066514;28;20407;-81
2020/12/29 01:56:29;;;;;;;0.90;0.70;;;0.60;99.90;;;;;;5065666;28;20572;-79
2020/12/29 01:58:55;;;;;;;2.00;0.90;;;0.60;99.90;;;;;;5060968;28;20390;-78
2020/12/29 02:01:20;;;;;;;2.07;1.00;;;0.50;99.90;;;;;;5071218;28;20107;-79
2020/12/29 02:03:46;;;;;;;2.30;0.97;;;0.40;99.90;;;;;;5063428;28;20099;-80
2020/12/29 02:06:12;;;;;;;1.63;0.77;;;0.40;99.90;;;;;;5062424;28;20052;-81
2020/12/29 02:08:38;;;;;;;1.20;0.90;;;0.40;99.90;;;;;;5070958;28;20071;-79
2020/12/29 02:11:04;;;;;;;1.53;0.87;;;0.40;99.90;;;;;;5063717;28;20032;-81
2020/12/29 02:13:41;;;;;;;1.83;0.90;;;0.50;99.90;;;;;;5066768;28;20112;-78
2020/12/29 02:16:06;;;;;;;1.13;0.70;;;0.60;99.90;;;;;;5064159;28;20079;-78
2020/12/29 02:18:33;;;;;;;2.10;1.10;;;0.70;99.90;;;;;;5062493;28;20060;-77
2020/12/29 02:20:58;;;;;;;1.53;0.80;;;0.70;99.90;;;;;;5068121;28;20029;-79
2020/12/29 02:23:24;;;;;;;1.77;0.80;;;0.70;99.90;;;;;;5064122;28;20269;-78
2020/12/29 02:25:50;;;;;;;1.00;0.60;;;0.70;99.90;;;;;;5069928;28;20430;-78
2020/12/29 02:28:15;;;;;;;2.33;0.80;;;0.80;99.90;;;;;;5064000;28;20056;-79
2020/12/29 02:30:41;;;;;;;1.10;0.70;;;0.80;99.90;;;;;;5065211;28;20025;-81
2020/12/29 02:33:06;;;;;;;1.50;0.93;;;0.80;99.90;;;;;;5063503;28;20077;-79
2020/12/29 02:35:32;;;;;;;1.00;0.60;;;0.80;99.90;;;;;;5070955;28;20115;-80
2020/12/29 02:37:58;;;;;;;1.90;0.80;;;0.90;99.90;;;;;;5067855;28;20028;-79
2020/12/29 02:40:24;;;;;;;0.70;0.60;;;0.80;99.90;;;;;;5070780;28;20029;-80
2020/12/29 02:42:50;;;;;;;1.27;0.70;;;0.80;99.90;;;;;;5063784;28;20090;-78
2020/12/29 02:45:16;;;;;;;1.67;0.70;;;0.90;99.90;;;;;;5067350;28;20407;-79
2020/12/29 02:47:41;;;;;;;1.00;0.70;;;0.90;99.90;;;;;;5066003;28;20160;-80
2020/12/29 02:50:07;;;;;;;1.03;0.60;;;1.00;99.90;;;;;;5063916;28;20391;-80
2020/12/29 02:52:33;;;;;;;2.73;0.83;;;1.00;99.90;;;;;;5057379;28;20041;-79
2020/12/29 02:54:59;;;;;;;2.70;0.73;;;0.90;99.90;;;;;;5069487;28;20134;-80
2020/12/29 02:57:24;;;;;;;1.53;0.80;;;0.80;99.90;;;;;;5057159;28;20119;-79
2020/12/29 02:59:50;;;;;;;1.17;0.70;;;0.80;99.90;;;;;;5063640;28;20028;-79
2020/12/29 03:02:16;;;;;;;1.40;0.90;;;0.80;99.90;;;;;;5065529;28;20036;-79
2020/12/29 03:04:41;;;;;;;1.20;0.60;;;0.80;99.90;;;;;;5074841;28;20094;-79
2020/12/29 03:07:07;;;;;;;1.20;0.70;;;0.90;99.90;;;;;;5071776;28;20024;-79
2020/12/29 03:09:32;;;;;;;1.93;0.73;;;0.90;99.90;;;;;;5071454;28;20100;-81
2020/12/29 03:11:59;;;;;;;1.80;0.70;;;1.00;99.90;;;;;;5064905;28;20029;-81
2020/12/29 03:14:25;;;;;;;0.80;0.70;;;1.00;99.90;;;;;;5068668;28;20077;-81
2020/12/29 03:16:51;;;;;;;1.90;0.73;;;1.10;99.90;;;;;;5072134;28;20160;-80
2020/12/29 03:19:16;;;;;;;1.43;0.70;;;1.20;99.90;;;;;;5076430;28;20028;-81
2020/12/29 03:21:42;;;;;;;1.40;0.60;;;1.20;99.90;;;;;;5068897;28;20036;-81
2020/12/29 03:24:07;;;;;;;1.43;0.80;;;1.30;99.90;;;;;;5071325;28;20020;-82
2020/12/29 03:26:33;;;;;;;0.87;0.70;;;1.40;99.90;;;;;;5073176;28;20052;-80
2020/12/29 03:28:59;;;;;;;1.23;0.70;;;1.40;99.90;;;;;;5068664;28;20036;-82
2020/12/29 03:31:25;;;;;;;1.30;0.70;;;1.40;99.90;;;;;;5063311;28;20032;-80
2020/12/29 03:33:51;;;;;;;1.83;0.90;;;1.40;99.90;;;;;;5070451;28;20028;-80
2020/12/29 03:36:17;;;;;;;1.47;0.70;;;1.50;99.90;;;;;;5070682;28;20062;-81
2020/12/29 03:38:42;;;;;;;1.17;0.73;;;1.50;99.90;;;;;;5075269;28;20017;-79
2020/12/29 03:41:08;;;;;;;1.03;0.70;;;1.50;99.90;;;;;;5076348;28;20091;-79
2020/12/29 03:43:34;;;;;;;0.70;0.60;;;1.40;99.90;;;;;;5084456;28;20048;-78
2020/12/29 03:45:59;;;;;;;0.93;0.63;;;1.40;99.90;;;;;;5075587;28;20032;-79
2020/12/29 03:48:26;;;;;;;0.93;0.77;;;1.30;99.90;;;;;;5084810;28;20024;-79
2020/12/29 03:50:52;;;;;;;1.00;0.90;;;1.20;99.90;;;;;;5093258;28;20035;-80
2020/12/29 03:53:19;;;;;;;1.40;0.70;;;1.10;99.90;;;;;;5069343;28;20025;-79
2020/12/29 03:55:44;;;;;;;1.30;0.80;;;1.00;99.90;;;;;;5064937;28;20049;-81
2020/12/29 03:58:10;;;;;;;1.57;1.00;;;0.90;99.90;;;;;;5066151;28;20102;-80
2020/12/29 04:00:37;;;;;;;1.07;0.70;;;0.90;99.90;;;;;;5065480;28;20020;-83
2020/12/29 04:03:04;;;;;;;1.43;1.00;;;0.80;99.90;;;;;;5071469;28;20384;-82
2020/12/29 04:05:30;;;;;;;1.17;0.80;;;0.80;99.90;;;;;;5065228;28;20525;-81
2020/12/29 04:07:56;;;;;;;1.47;0.80;;;0.80;99.90;;;;;;5064866;28;20176;-81
2020/12/29 04:10:21;;;;;;;1.17;0.90;;;0.80;99.90;;;;;;5064416;28;20028;-80
2020/12/29 04:12:47;;;;;;;1.03;0.77;;;0.80;99.90;;;;;;5068860;28;20020;-80
2020/12/29 04:15:13;;;;;;;1.60;0.80;;;0.80;99.90;;;;;;5055747;28;20025;-80
2020/12/29 04:17:40;;;;;;;1.93;0.90;;;0.80;99.90;;;;;;5062958;28;20119;-80
2020/12/29 04:20:11;;;;;;;1.33;0.70;;;0.80;99.90;;;;;;5069968;28;20036;-81
2020/12/29 04:22:38;;;;;;;1.33;0.90;;;0.70;99.90;;;;;;5063470;28;20051;-80
2020/12/29 04:25:08;;;;;;;2.83;1.20;;;0.70;99.90;;;;;;5064306;28;20048;-81
2020/12/29 04:27:36;;;;;;;1.43;0.80;;;0.60;99.90;;;;;;5068741;28;20023;-80
2020/12/29 04:30:03;;;;;;;2.93;1.03;;;0.60;99.90;;;;;;5058396;28;20181;-81
2020/12/29 04:32:29;;;;;;;2.20;1.10;;;0.50;99.90;;;;;;5065114;28;20052;-80
2020/12/29 04:34:54;;;;;;;1.63;1.00;;;0.50;99.90;;;;;;5070084;28;20122;-80
2020/12/29 04:37:20;;;;;;;1.20;0.83;;;0.50;99.90;;;;;;5066010;28;20070;-79
2020/12/29 04:39:45;;;;;;;1.93;1.00;;;0.50;99.90;;;;;;5059449;28;20028;-80
2020/12/29 04:42:13;;;;;;;2.80;1.10;;;0.50;99.90;;;;;;5064902;28;20152;-79
2020/12/29 04:44:41;;;;;;;2.20;0.97;;;0.50;99.90;;;;;;5059555;28;20566;-79
2020/12/29 04:47:10;;;;;;;3.07;1.20;;;0.40;99.90;;;;;;5062237;28;20043;-81
2020/12/29 04:49:36;;;;;;;1.87;1.00;;;0.40;99.90;;;;;;5069531;28;20059;-80
2020/12/29 04:52:04;;;;;;;3.13;1.23;;;0.40;99.90;;;;;;5062960;28;20056;-81
2020/12/29 04:54:33;;;;;;;2.80;1.27;;;0.50;99.90;;;;;;5067035;28;20131;-79
2020/12/29 04:57:00;;;;;;;2.78;1.00;;;0.50;99.90;;;;;;5066987;28;20107;-81
2020/12/29 04:59:28;;;;;;;2.10;1.20;;;0.60;99.90;;;;;;5070135;28;20353;-81
2020/12/29 05:01:54;;;;;;;3.17;1.40;;;0.60;99.90;;;;;;5063338;28;20115;-81
2020/12/29 05:04:21;;;;;;;2.50;1.27;;;0.70;99.90;;;;;;5064294;28;20111;-81
2020/12/29 05:06:49;;;;;;;2.40;1.10;;;0.70;99.90;;;;;;5066842;28;20036;-80
2020/12/29 05:09:16;;;;;;;2.73;1.10;;;0.80;99.90;;;;;;5059284;28;20020;-80
2020/12/29 05:11:42;;;;;;;2.13;1.00;;;0.80;99.90;;;;;;5066279;28;20029;-80
2020/12/29 05:14:07;;;;;;;1.80;1.00;;;0.80;99.90;;;;;;5067779;28;20024;-80
2020/12/29 05:16:37;;;;;;;1.83;0.90;;;0.90;99.90;;;;;;5065736;28;20519;-83
2020/12/29 05:19:08;;;;;;;2.83;0.97;;;0.90;99.90;;;;;;5069661;28;20052;-82
2020/12/29 05:21:37;;;;;;;1.90;0.93;;;0.90;99.90;;;;;;5072669;28;20013;-80
2020/12/29 05:24:20;;;;;;;2.95;1.20;;;0.90;99.90;;;;;;5066506;28;20042;-79
2020/12/29 05:26:52;;;;;;;1.43;0.80;;;1.00;99.90;;;;;;5064078;28;20037;-81
2020/12/29 05:29:21;;;;;;;2.00;0.97;;;0.90;99.90;;;;;;5064315;28;20020;-79
2020/12/29 05:31:46;;;;;;;1.40;0.90;;;0.90;99.90;;;;;;5078468;28;20016;-81
2020/12/29 05:34:24;;;;;;;2.07;0.90;;;1.00;99.90;;;;;;5063064;28;20461;-82
2020/12/29 05:36:52;;;;;;;2.53;1.00;;;1.00;99.90;;;;;;5080539;28;20047;-81
2020/12/29 05:39:23;;;;;;;1.77;0.70;;;1.00;99.90;;;;;;5090792;28;20017;-82
2020/12/29 05:41:52;;;;;;;2.40;0.73;;;1.00;99.90;;;;;;5086536;28;20048;-84
2020/12/29 05:44:30;;;;;;;1.03;0.70;;;1.00;99.90;;;;;;5073855;28;20028;-84
2020/12/29 05:46:58;;;;;;;1.15;0.65;;;1.10;99.90;;;;;;5063183;28;20028;-84
2020/12/29 05:49:26;;;;;;;1.17;0.80;;;1.20;99.90;;;;;;5066580;28;20430;-84
2020/12/29 05:51:56;;;;;;;3.23;0.93;;;1.20;99.90;;;;;;5065679;28;20033;-82
2020/12/29 05:54:23;;;;;;;1.57;0.80;;;1.10;99.90;;;;;;5063404;28;20586;-84
2020/12/29 05:56:53;;;;;;;1.03;0.60;;;1.10;99.90;;;;;;5062805;28;20044;-83
2020/12/29 05:59:28;;;;;;;1.30;0.70;;;1.10;99.90;;;;;;5065906;28;20028;-83
2020/12/29 06:01:54;;;;;;;0.87;0.60;;;1.20;99.90;;;;;;5062252;28;20128;-81
2020/12/29 06:04:22;;;;;;;1.27;0.90;;;1.30;99.90;;;;;;5061158;28;20136;-82
2020/12/29 06:06:48;;;;;;;1.17;0.80;;;1.30;99.90;;;;;;5060146;28;20074;-83
2020/12/29 06:09:15;;;;;;;1.07;0.73;;;1.40;99.90;;;;;;5060560;28;20441;-82
2020/12/29 06:11:54;;;;;;;1.10;0.73;;;1.40;99.90;;;;;;5059414;28;20106;-81
2020/12/29 06:14:20;;;;;;;0.73;0.63;;;1.50;99.90;;;;;;5062953;28;20033;-82
2020/12/29 06:16:46;;;;;;;2.70;1.17;;;1.50;99.90;;;;;;5079057;28;20423;-84
2020/12/29 06:19:27;;;;;;;1.10;0.80;;;1.60;99.90;;;;;;5074855;28;20036;-84
2020/12/29 06:22:12;;;;;;;1.63;0.80;;;1.60;99.90;;;;;;5081622;28;20029;-83
2020/12/29 06:24:43;;;;;;;1.07;0.90;;;1.60;99.90;;;;;;5067343;28;20017;-85
2020/12/29 06:27:11;;;;;;;1.37;0.80;;;1.60;99.90;;;;;;5061568;28;20063;-85
2020/12/29 06:29:39;;;;;;;1.10;0.70;;;1.60;99.90;;;;;;5070409;28;20047;-82
2020/12/29 06:32:16;;;;;;;1.30;0.87;;;1.50;99.90;;;;;;5068418;28;20025;-85
2020/12/29 06:34:46;;;;;;;1.33;0.83;;;1.50;99.90;;;;;;5073560;28;20029;-84
2020/12/29 06:37:22;;;;;;;;;;;1.40;99.90;;;;;;5070777;28;20029;-83
2020/12/29 06:39:52;;;;;;;0.93;0.63;;;1.40;99.90;;;;;;5066195;28;19909;-81
2020/12/29 06:42:19;;;;;;;0.70;0.70;;;1.40;99.90;;;;;;5065844;28;20028;-82
2020/12/29 06:44:44;;;;;;;0.90;0.60;;;1.40;99.90;;;;;;5055885;28;20028;-83
2020/12/29 06:47:12;;;;;;;2.23;1.23;;;1.30;99.90;;;;;;5082820;28;20032;-83
2020/12/29 06:49:43;;;;;;;1.37;0.90;;;1.30;99.90;;;;;;5065099;28;20110;-84
2020/12/29 06:52:18;;;;;;;1.37;0.90;;;1.20;99.90;;;;;;5056139;28;20029;-86
2020/12/29 06:54:57;;;;;;;1.00;0.80;;;1.20;99.90;;;;;;5087618;28;20165;-83
2020/12/29 06:57:38;;;;;;;2.63;0.80;;;1.10;99.90;;;;;;5061387;28;20021;-84
2020/12/29 07:00:10;;;;;;;1.80;1.00;;;1.10;99.90;;;;;;5060364;28;20139;-83
2020/12/29 07:02:36;;;;;;;1.40;0.80;;;1.10;99.90;;;;;;5061670;28;20029;-86
2020/12/29 07:05:20;;;;;;;1.83;1.00;;;1.00;99.90;;;;;;5058961;28;20031;-84
2020/12/29 07:07:55;;;;;;;1.43;1.00;;;1.00;99.90;;;;;;5071271;28;20476;-79
2020/12/29 07:10:22;;;;;;;1.87;1.00;;;1.00;99.90;;;;;;5359495;22;20037;-88
2020/12/29 07:12:50;;;;;;;1.87;0.83;;;0.90;99.90;;;;;;5036386;28;20021;-89
2020/12/29 07:15:21;;;;;;;2.40;1.07;;;0.90;99.90;;;;;;5027162;28;20033;-89
2020/12/29 07:17:57;;;;;;;2.13;1.00;;;0.90;99.90;;;;;;5020614;28;20037;-88
2020/12/29 07:20:25;;;;;;;3.63;1.10;;;0.90;99.90;;;;;;5034862;28;20036;-87
2020/12/29 07:23:04;;;;;;;2.77;1.47;;;1.00;99.90;;;;;;5029365;28;20060;-89
2020/12/29 07:28:56;;;;;;;;;;;1.00;99.90;;;;;;5034662;28;20037;-88
2020/12/29 07:31:21;;;;;;;3.50;1.60;;;1.10;99.90;;;;;;5027098;28;19909;-85
2020/12/29 07:33:55;;;;;;;3.13;1.60;;;1.10;99.90;;;;;;5032372;28;20503;-89
2020/12/29 07:36:22;;;;;;;4.53;1.67;;;1.20;99.90;;;;;;5023750;28;20477;-88
2020/12/29 07:38:53;;;;;;;3.83;1.53;;;1.10;99.90;;;;;;5041705;28;20034;-87
2020/12/29 07:41:27;;;;;;;2.90;1.27;;;1.20;99.90;;;;;;5045053;28;20018;-87
2020/12/29 07:43:53;;;;;;;3.07;1.40;;;1.30;99.90;;;;;;5044136;28;20026;-86
2020/12/29 07:46:19;;;;;;;2.10;1.20;;;1.40;99.90;;;;;;5040740;28;20021;-88
2020/12/29 07:48:45;;;;;;;3.07;1.23;;;1.50;99.90;;;;;;5032018;28;20031;-83
2020/12/29 07:51:11;;;;;;;2.03;1.00;;;1.60;99.90;;;;;;5035208;28;20021;-81
2020/12/29 07:53:36;;;;;;;1.97;1.10;;;1.70;99.90;;;;;;5045213;28;20048;-84
2020/12/29 07:56:03;;;;;;;1.77;1.00;;;1.80;99.90;;;;;;5042154;28;20042;-84
2020/12/29 07:58:28;;;;;;;1.47;1.00;;;1.80;99.90;;;;;;5064670;28;20025;-86
2020/12/29 08:00:54;;;;;;;2.17;0.90;;;2.00;99.90;;;;;;5055911;28;20055;-84
2020/12/29 08:03:19;;;;;;;1.63;0.82;;;2.10;99.90;;;;;;5056240;28;20014;-85
2020/12/29 08:05:46;;;;;;;1.92;1.25;;;2.20;99.90;;;;;;5037441;28;20026;-83
2020/12/29 08:08:13;;;;;;;2.13;0.90;;;2.20;99.90;;;;;;5040873;28;20041;-84
2020/12/29 08:10:44;;;;;;;2.15;1.10;;;2.30;99.90;;;;;;5036549;28;20041;-83
2020/12/29 08:13:12;;;;;;;0.98;0.82;;;2.40;99.90;;;;;;5040952;28;20056;-83
2020/12/29 08:15:39;;;;;;;0.93;0.65;;;2.70;99.90;;;;;;5018569;28;20042;-83
2020/12/29 08:18:12;;;;;;;1.75;0.80;;;2.90;99.90;;;;;;5039911;28;20062;-85
2020/12/29 08:20:57;;;;;;;0.80;0.50;;;3.10;99.90;;;;;;5060995;28;20063;-85
2020/12/29 08:23:27;;;;;;;0.75;0.55;;;3.40;99.90;;;;;;5044388;28;20110;-86
2020/12/29 08:26:01;;;;;;;1.00;0.57;;;3.70;99.90;;;;;;5031686;28;20026;-85
2020/12/29 08:28:30;;;;;;;1.10;0.57;;;3.80;99.90;;;;;;5040675;28;20558;-85
2020/12/29 08:31:00;;;;;;;2.40;0.60;;;3.90;99.90;;;;;;5043159;28;20061;-85
2020/12/29 08:33:28;;;;;;;;;;;4.00;99.90;;;;;;5046430;28;20074;-83
2020/12/29 08:35:57;;;;;;;2.00;0.55;;;4.10;99.90;;;;;;5037656;28;19917;-83
2020/12/29 08:38:41;;;;;;;0.50;0.50;;;4.20;99.90;;;;;;5037532;28;20048;-89
2020/12/29 08:41:12;;;;;;;1.08;0.50;;;4.30;99.90;;;;;;5038784;28;20045;-88
2020/12/29 08:43:46;;;;;;;1.05;0.70;;;4.40;99.90;;;;;;5043037;28;20068;-87
2020/12/29 08:46:17;;;;;;;2.03;0.43;;;4.40;99.90;;;;;;5024356;28;20014;-87
2020/12/29 08:48:56;;;;;;;1.00;0.40;;;4.40;99.90;;;;;;5052142;28;20037;-84
2020/12/29 08:51:27;;;;;;;0.95;0.40;;;4.40;99.90;;;;;;5048793;28;20484;-84
2020/12/29 08:54:15;;;;;;;2.13;0.82;;;4.40;99.90;;;;;;5038009;28;20396;-85
2020/12/29 08:56:42;;;;;;;0.60;0.40;;;4.40;99.90;;;;;;5043910;28;20088;-83
2020/12/29 08:59:16;;;;;;;1.35;0.50;;;4.40;99.90;;;;;;5035903;28;20089;-83
2020/12/29 09:01:43;;;;;;;1.55;0.80;;;4.40;99.90;;;;;;5036793;28;20033;-85
2020/12/29 09:04:43;;;;;;;1.00;0.60;;;4.40;99.90;;;;;;5042723;28;20029;-86
2020/12/29 09:07:13;;;;;;;1.05;0.50;;;4.50;99.90;;;;;;5041312;28;20435;-84
2020/12/29 09:10:01;;;;;;;1.30;0.52;;;4.60;99.90;;;;;;5034042;28;20099;-84
2020/12/29 09:12:34;;;;;;;1.50;0.50;;;4.60;99.90;;;;;;5040343;28;20490;-85
2020/12/29 09:15:22;;;;;;;1.52;0.60;;;4.70;99.90;;;;;;5048440;28;20032;-85
2020/12/29 09:18:00;;;;;;;1.77;0.50;;;4.80;99.90;;;;;;5025321;28;20033;-82
2020/12/29 09:20:28;;;;;;;1.10;0.50;;;4.80;99.90;;;;;;5026229;28;20163;-83
2020/12/29 09:23:10;;;;;;;0.65;0.40;;;4.80;99.90;;;;;;5028796;28;20048;-81
2020/12/29 09:25:37;;;;;;;1.50;0.60;;;4.80;99.90;;;;;;5026711;28;20022;-81
2020/12/29 09:28:15;;;;;;;0.85;0.40;;;4.90;99.90;;;;;;5029777;28;20087;-81
2020/12/29 09:30:43;;;;;;;2.08;0.55;;;5.00;99.90;;;;;;5027371;28;20541;-82
2020/12/29 09:33:33;;;;;;;2.70;0.85;;;5.00;99.90;;;;;;5028400;28;20115;-83
2020/12/29 09:36:02;;;;;;;2.67;0.50;;;5.10;99.90;;;;;;5047460;28;20056;-78
2020/12/29 09:38:30;;;;;;;3.25;0.70;;;5.20;99.90;;;;;;5046503;28;20389;-78
2020/12/29 09:40:56;;;;;;;0.90;0.60;;;5.30;99.90;;;;;;5049500;28;20040;-76
2020/12/29 09:43:24;;;;;;;2.38;0.90;;;;;;;;;;5030329;28;20021;-75
2020/12/29 09:45:50;;;;;;;1.27;0.82;;;5.40;99.90;;;;;;5045221;28;20147;-74
2020/12/29 09:48:17;;;;;;;1.63;0.80;;;5.40;99.90;;;;;;5027268;28;20017;-74
2020/12/29 09:50:42;;;;;;;1.70;0.70;;;5.30;99.90;;;;;;5034080;28;20097;-75
2020/12/29 09:53:09;;;;;;;1.40;0.60;;;5.30;99.90;;;;;;5036704;28;20558;-73
2020/12/29 09:55:35;;;;;;;1.95;0.70;;;5.30;99.90;;;;;;5039007;28;20177;-73
2020/12/29 09:58:00;;;;;;;1.70;0.90;;;5.30;99.90;;;;;;5039679;28;20191;-73
2020/12/29 10:00:26;;;;;;;2.25;0.60;;;5.20;99.90;;;;;;5038643;28;20033;-75
2020/12/29 10:02:52;;;;;;;3.95;0.70;;;5.30;99.90;;;;;;5040513;28;20025;-74
2020/12/29 10:05:17;;;;;;;1.63;0.70;;;5.30;99.90;;;;;;5040725;28;20040;-74
2020/12/29 10:07:47;;;;;;;0.93;0.60;;;5.40;99.90;;;;;;5038522;28;20029;-74
2020/12/29 10:10:13;;;;;;;1.25;0.68;;;5.40;99.90;;;;;;5035635;28;20041;-75
2020/12/29 10:12:39;;;;;;;2.47;1.20;;;5.40;99.90;;;;;;5039460;28;20036;-76
2020/12/29 10:15:05;;;;;;;1.65;0.60;;;5.30;99.90;;;;;;5029246;28;20076;-74
2020/12/29 10:17:31;;;;;;;1.67;0.68;;;5.40;99.90;;;;;;5034723;28;20044;-75
2020/12/29 10:19:57;;;;;;;2.65;0.70;;;5.30;99.90;;;;;;5037545;28;20041;-74
2020/12/29 10:22:25;;;;;;;2.15;0.75;;;5.40;99.90;;;;;;5036784;28;20132;-75
2020/12/29 10:24:50;;;;;;;2.25;0.77;;;5.50;99.90;;;;;;5036618;28;20029;-75
2020/12/29 10:27:16;;;;;;;1.45;0.70;;;5.50;99.90;;;;;;5038560;28;20033;-74
2020/12/29 10:29:41;;;;;;;1.13;0.50;;;5.50;99.90;;;;;;5039654;28;20026;-74
2020/12/29 10:32:07;;;;;;;2.78;0.90;;;5.60;99.90;;;;;;5037744;28;20043;-73
2020/12/29 10:34:33;;;;;;;2.55;0.80;;;5.70;99.90;;;;;;5037342;28;20507;-74
2020/12/29 10:36:59;;;;;;;1.42;0.63;;;5.70;99.90;;;;;;5039339;28;20037;-74
2020/12/29 10:39:25;;;;;;;1.00;0.60;;;5.60;99.90;;;;;;5041190;28;20388;-73
2020/12/29 10:41:50;;;;;;;2.72;0.63;;;5.70;99.90;;;;;;5037273;28;20057;-74
2020/12/29 10:44:16;;;;;;;1.77;0.70;;;5.70;99.90;;;;;;5036593;28;20025;-73
2020/12/29 10:46:46;;;;;;;2.35;0.50;;;5.80;99.90;;;;;;5041585;28;20088;-74
2020/12/29 10:49:12;;;;;;;1.52;0.70;;;5.80;99.90;;;;;;5038638;28;20540;-72
2020/12/29 10:51:38;;;;;;;1.67;0.85;;;5.80;99.90;;;;;;5039476;28;20124;-74
2020/12/29 10:54:03;;;;;;;2.17;0.57;;;5.90;99.90;;;;;;5038448;28;20047;-74
2020/12/29 10:56:29;;;;;;;3.38;0.82;;;6.00;99.90;;;;;;5038309;28;20041;-74
2020/12/29 10:58:54;;;;;;;1.60;0.60;;;5.90;99.90;;;;;;5041386;28;20020;-76
2020/12/29 11:01:22;;;;;;;1.38;0.50;;;5.90;99.90;;;;;;5041468;28;20022;-74
2020/12/29 11:03:49;;;;;;;2.30;0.80;;;5.90;99.90;;;;;;5040120;28;20317;-74
2020/12/29 11:06:18;;;;;;;3.97;0.82;;;5.90;99.90;;;;;;5039192;28;20060;-75
2020/12/29 11:08:44;;;;;;;1.52;0.70;;;5.90;99.90;;;;;;5038179;28;20101;-75
2020/12/29 11:11:10;;;;;;;1.20;0.75;;;6.10;99.90;;;;;;5040213;28;20065;-74
2020/12/29 11:13:36;;;;;;;1.95;0.85;;;6.20;99.90;;;;;;5036595;28;20473;-74
2020/12/29 11:16:03;;;;;;;2.42;1.10;;;6.20;99.90;;;;;;5029088;28;20124;-76
2020/12/29 11:18:28;;;;;;;2.10;0.75;;;6.20;99.90;;;;;;5029914;28;20032;-75
2020/12/29 11:20:55;;;;;;;2.60;0.70;;;6.20;99.90;;;;;;5029965;28;20540;-76
2020/12/29 11:23:21;;;;;;;4.18;0.88;;;6.00;99.90;;;;;;5028971;28;20507;-77
2020/12/29 11:25:46;;;;;;;2.65;1.02;;;5.90;99.90;;;;;;5030242;28;20037;-76
2020/12/29 11:28:12;;;;;;;2.03;0.75;;;5.80;99.90;;;;;;5027063;28;20486;-75
2020/12/29 11:30:38;;;;;;;1.38;0.70;;;5.70;99.90;;;;;;5030268;28;20095;-76
2020/12/29 11:33:04;;;;;;;1.67;0.63;;;5.60;99.90;;;;;;5033945;28;20127;-76
2020/12/29 11:35:31;;;;;;;2.53;0.90;;;5.60;99.90;;;;;;5028397;28;20033;-76
2020/12/29 11:37:57;;;;;;;2.53;0.90;;;5.50;99.90;;;;;;5031051;28;20048;-75
2020/12/29 11:40:22;;;;;;;1.35;0.80;;;5.50;99.90;;;;;;5033599;28;20476;-76
2020/12/29 11:42:48;;;;;;;3.17;0.80;;;5.50;99.90;;;;;;5031973;28;20818;-76
2020/12/29 11:45:14;;;;;;;1.80;0.90;;;5.50;99.90;;;;;;5031739;28;20025;-78
2020/12/29 11:47:39;;;;;;;2.72;1.05;;;5.50;99.90;;;;;;5029930;28;20029;-77
2020/12/29 11:50:05;;;;;;;2.00;0.82;;;5.40;99.90;;;;;;5030037;28;20036;-76
2020/12/29 11:52:31;;;;;;;2.65;0.82;;;5.50;99.90;;;;;;5032230;28;20040;-76
2020/12/29 11:55:33;;;;;;;1.98;0.60;;;5.40;99.90;;;;;;5030366;28;20033;-75
2020/12/29 11:57:58;;;;;;;2.65;1.00;;;5.40;99.90;;;;;;4984355;28;20477;-75
2020/12/29 12:00:24;;;;;;;1.85;0.70;;;5.50;99.90;;;;;;4984396;28;20034;-76
2020/12/29 12:02:49;;;;;;;2.58;0.68;;;5.50;99.90;;;;;;4985477;28;20049;-75
2020/12/29 12:05:15;;;;;;;2.15;0.85;;;5.50;99.90;;;;;;4983441;28;20042;-76
2020/12/29 12:07:41;;;;;;;1.23;0.63;;;5.50;99.90;;;;;;4984645;28;20564;-75
2020/12/29 12:10:08;;;;;;;1.60;0.63;;;5.60;99.90;;;;;;4985069;28;20141;-75
2020/12/29 12:12:37;;;;;;;2.13;0.70;;;5.60;99.90;;;;;;4985974;28;20050;-75
2020/12/29 12:15:06;;;;;;;1.92;0.80;;;5.60;99.90;;;;;;4987552;28;20089;-76
2020/12/29 12:17:33;;;;;;;1.50;0.70;;;5.60;99.90;;;;;;4980719;28;20045;-75
2020/12/29 12:19:59;;;;;;;2.22;0.70;;;5.60;99.90;;;;;;4987361;28;20536;-76
2020/12/29 12:22:24;;;;;;;2.05;0.30;;;5.60;99.90;;;;;;4982822;28;20034;-76
2020/12/29 12:24:50;;;;;;;2.10;0.80;;;5.60;99.90;;;;;;4983109;28;20094;-76
2020/12/29 12:27:16;;;;;;;1.85;0.77;;;5.60;99.90;;;;;;4986406;28;20125;-75
2020/12/29 12:29:42;;;;;;;1.83;0.52;;;5.70;99.90;;;;;;4987577;28;20386;-76
2020/12/29 12:32:07;;;;;;;2.95;0.63;;;5.70;99.90;;;;;;4986566;28;20049;-76
2020/12/29 12:34:33;;;;;;;2.85;0.60;;;5.80;99.90;;;;;;5015281;28;20120;-77
2020/12/29 12:36:58;;;;;;;2.53;0.75;;;5.70;99.90;;;;;;5027733;28;20033;-76
2020/12/29 12:39:24;;;;;;;2.92;0.90;;;5.70;99.90;;;;;;5026061;28;20504;-75
2020/12/29 12:41:51;;;;;;;3.22;1.08;;;5.70;99.90;;;;;;5027011;28;20057;-76
2020/12/29 12:44:17;;;;;;;1.30;0.65;;;5.70;99.90;;;;;;5024031;28;20548;-77
2020/12/29 12:46:43;;;;;;;3.40;0.80;;;5.70;99.90;;;;;;5027504;28;20026;-75
2020/12/29 12:49:09;;;;;;;2.53;0.82;;;5.70;99.90;;;;;;5028183;28;20112;-76
2020/12/29 12:51:35;;;;;;;3.38;0.80;;;5.70;99.90;;;;;;5024590;28;20025;-76
2020/12/29 12:54:01;;;;;;;4.68;0.80;;;5.70;99.90;;;;;;5026205;28;20053;-75
2020/12/29 12:56:30;;;;;;;2.75;0.80;;;5.70;99.90;;;;;;5027711;28;20084;-77
2020/12/29 12:58:59;;;;;;;2.70;0.70;;;5.70;99.90;;;;;;5023549;28;20056;-76
2020/12/29 13:01:25;;;;;;;2.75;0.52;;;5.70;99.90;;;;;;5026157;28;20358;-75
2020/12/29 13:03:50;;;;;;;3.08;0.65;;;5.70;99.90;;;;;;5027603;28;20032;-77
2020/12/29 13:06:23;;;;;;;1.27;0.35;;;5.60;99.90;;;;;;5026012;28;20033;-74